sensor_id;sensor_type;location;lat;lon;timestamp;P1;durP1;ratioP1;P2;durP2;ratioP2
5819;SDS011;2936;47.348;9.640;2023-09-19T00:00:20;1.37;;;1.37;;
5819;SDS011;2936;47.348;9.640;2023-09-19T00:02:53;2.20;;;1.93;;
5819;SDS011;2936;47.348;9.640;2023-09-19T00:05:22;1.40;;;1.40;;
5819;SDS011;2936;47.348;9.640;2023-09-19T00:07:50;1.50;;;1.50;;
5819;SDS011;2936;47.348;9.640;2023-09-19T00:10:20;1.53;;;1.53;;
5819;SDS011;2936;47.348;9.640;2023-09-19T00:12:49;8.73;;;1.30;;
5819;SDS011;2936;47.348;9.640;2023-09-19T00:15:22;1.17;;;1.17;;
5819;SDS011;2936;47.348;9.640;2023-09-19T00:17:51;1.20;;;1.20;;
5819;SDS011;2936;47.348;9.640;2023-09-19T00:20:18;1.10;;;1.10;;
5819;SDS011;2936;47.348;9.640;2023-09-19T00:22:48;1.30;;;1.30;;
5819;SDS011;2936;47.348;9.640;2023-09-19T00:25:18;1.20;;;1.20;;
5819;SDS011;2936;47.348;9.640;2023-09-19T00:27:47;1.60;;;1.50;;
5819;SDS011;2936;47.348;9.640;2023-09-19T00:30:17;1.37;;;1.37;;
5819;SDS011;2936;47.348;9.640;2023-09-19T00:35:33;1.40;;;1.30;;
5819;SDS011;2936;47.348;9.640;2023-09-19T00:38:02;1.80;;;1.70;;
5819;SDS011;2936;47.348;9.640;2023-09-19T00:40:31;2.00;;;1.90;;
5819;SDS011;2936;47.348;9.640;2023-09-19T00:43:00;1.43;;;1.43;;
5819;SDS011;2936;47.348;9.640;2023-09-19T00:45:30;2.10;;;1.47;;
5819;SDS011;2936;47.348;9.640;2023-09-19T00:47:59;1.73;;;1.47;;
5819;SDS011;2936;47.348;9.640;2023-09-19T00:50:38;1.50;;;1.50;;
5819;SDS011;2936;47.348;9.640;2023-09-19T00:53:09;1.07;;;1.07;;
5819;SDS011;2936;47.348;9.640;2023-09-19T00:55:38;1.30;;;1.30;;
5819;SDS011;2936;47.348;9.640;2023-09-19T00:58:07;1.23;;;1.23;;
5819;SDS011;2936;47.348;9.640;2023-09-19T01:00:35;2.10;;;1.43;;
5819;SDS011;2936;47.348;9.640;2023-09-19T01:03:05;1.50;;;1.50;;
5819;SDS011;2936;47.348;9.640;2023-09-19T01:05:33;1.43;;;1.43;;
5819;SDS011;2936;47.348;9.640;2023-09-19T01:08:06;1.20;;;1.20;;
5819;SDS011;2936;47.348;9.640;2023-09-19T01:10:36;1.70;;;1.60;;
5819;SDS011;2936;47.348;9.640;2023-09-19T01:13:07;1.13;;;1.13;;
5819;SDS011;2936;47.348;9.640;2023-09-19T01:15:39;2.80;;;1.33;;
5819;SDS011;2936;47.348;9.640;2023-09-19T01:18:16;1.10;;;1.10;;
5819;SDS011;2936;47.348;9.640;2023-09-19T01:20:50;1.47;;;1.47;;
5819;SDS011;2936;47.348;9.640;2023-09-19T01:23:23;1.10;;;1.10;;
5819;SDS011;2936;47.348;9.640;2023-09-19T01:26:07;1.33;;;1.33;;
5819;SDS011;2936;47.348;9.640;2023-09-19T01:28:44;1.20;;;1.20;;
5819;SDS011;2936;47.348;9.640;2023-09-19T01:31:21;1.77;;;1.20;;
5819;SDS011;2936;47.348;9.640;2023-09-19T01:33:53;1.50;;;1.50;;
5819;SDS011;2936;47.348;9.640;2023-09-19T01:36:26;1.30;;;1.30;;
5819;SDS011;2936;47.348;9.640;2023-09-19T01:38:54;1.30;;;1.30;;
5819;SDS011;2936;47.348;9.640;2023-09-19T01:41:26;7.03;;;1.50;;
5819;SDS011;2936;47.348;9.640;2023-09-19T01:43:54;1.53;;;1.50;;
5819;SDS011;2936;47.348;9.640;2023-09-19T01:46:24;7.30;;;1.57;;
5819;SDS011;2936;47.348;9.640;2023-09-19T01:48:55;1.40;;;1.40;;
5819;SDS011;2936;47.348;9.640;2023-09-19T01:51:29;1.53;;;1.43;;
5819;SDS011;2936;47.348;9.640;2023-09-19T01:54:00;1.63;;;1.63;;
5819;SDS011;2936;47.348;9.640;2023-09-19T01:56:32;4.50;;;1.97;;
5819;SDS011;2936;47.348;9.640;2023-09-19T01:59:02;1.47;;;1.30;;
5819;SDS011;2936;47.348;9.640;2023-09-19T02:01:33;3.33;;;1.57;;
5819;SDS011;2936;47.348;9.640;2023-09-19T02:04:02;1.20;;;1.20;;
5819;SDS011;2936;47.348;9.640;2023-09-19T02:06:30;1.50;;;1.40;;
5819;SDS011;2936;47.348;9.640;2023-09-19T02:09:00;1.70;;;1.60;;
5819;SDS011;2936;47.348;9.640;2023-09-19T02:11:29;4.20;;;1.63;;
5819;SDS011;2936;47.348;9.640;2023-09-19T02:13:57;1.53;;;1.53;;
5819;SDS011;2936;47.348;9.640;2023-09-19T02:16:26;1.30;;;1.30;;
5819;SDS011;2936;47.348;9.640;2023-09-19T02:18:57;1.67;;;1.57;;
5819;SDS011;2936;47.348;9.640;2023-09-19T02:21:26;1.67;;;1.57;;
5819;SDS011;2936;47.348;9.640;2023-09-19T02:23:55;1.60;;;1.50;;
5819;SDS011;2936;47.348;9.640;2023-09-19T02:26:22;1.30;;;1.30;;
5819;SDS011;2936;47.348;9.640;2023-09-19T02:28:50;2.40;;;2.20;;
5819;SDS011;2936;47.348;9.640;2023-09-19T02:31:18;1.40;;;1.40;;
5819;SDS011;2936;47.348;9.640;2023-09-19T02:33:46;1.57;;;1.47;;
5819;SDS011;2936;47.348;9.640;2023-09-19T02:36:15;1.40;;;1.40;;
5819;SDS011;2936;47.348;9.640;2023-09-19T02:38:44;1.43;;;1.43;;
5819;SDS011;2936;47.348;9.640;2023-09-19T02:41:12;1.63;;;1.33;;
5819;SDS011;2936;47.348;9.640;2023-09-19T02:43:40;1.20;;;1.20;;
5819;SDS011;2936;47.348;9.640;2023-09-19T02:46:09;1.77;;;1.67;;
5819;SDS011;2936;47.348;9.640;2023-09-19T02:48:38;1.53;;;1.50;;
5819;SDS011;2936;47.348;9.640;2023-09-19T02:51:07;1.47;;;1.47;;
5819;SDS011;2936;47.348;9.640;2023-09-19T02:53:37;1.53;;;1.43;;
5819;SDS011;2936;47.348;9.640;2023-09-19T02:56:05;1.73;;;1.40;;
5819;SDS011;2936;47.348;9.640;2023-09-19T02:58:32;1.50;;;1.50;;
5819;SDS011;2936;47.348;9.640;2023-09-19T03:01:07;1.63;;;1.27;;
5819;SDS011;2936;47.348;9.640;2023-09-19T03:03:37;1.53;;;1.43;;
5819;SDS011;2936;47.348;9.640;2023-09-19T03:06:06;1.30;;;1.30;;
5819;SDS011;2936;47.348;9.640;2023-09-19T03:08:36;1.53;;;1.53;;
5819;SDS011;2936;47.348;9.640;2023-09-19T03:11:05;1.30;;;1.30;;
5819;SDS011;2936;47.348;9.640;2023-09-19T03:13:36;1.30;;;1.30;;
5819;SDS011;2936;47.348;9.640;2023-09-19T03:16:05;1.40;;;1.40;;
5819;SDS011;2936;47.348;9.640;2023-09-19T03:18:33;1.10;;;1.10;;
5819;SDS011;2936;47.348;9.640;2023-09-19T03:21:03;1.20;;;1.20;;
5819;SDS011;2936;47.348;9.640;2023-09-19T03:23:33;1.37;;;1.33;;
5819;SDS011;2936;47.348;9.640;2023-09-19T03:26:05;1.87;;;1.77;;
5819;SDS011;2936;47.348;9.640;2023-09-19T03:28:35;1.20;;;1.20;;
5819;SDS011;2936;47.348;9.640;2023-09-19T03:31:03;1.67;;;1.57;;
5819;SDS011;2936;47.348;9.640;2023-09-19T03:33:33;1.43;;;1.43;;
5819;SDS011;2936;47.348;9.640;2023-09-19T03:36:03;1.87;;;1.77;;
5819;SDS011;2936;47.348;9.640;2023-09-19T03:38:33;1.63;;;1.63;;
5819;SDS011;2936;47.348;9.640;2023-09-19T03:41:01;1.33;;;1.33;;
5819;SDS011;2936;47.348;9.640;2023-09-19T03:43:31;9.07;;;2.70;;
5819;SDS011;2936;47.348;9.640;2023-09-19T03:46:01;3.17;;;1.73;;
5819;SDS011;2936;47.348;9.640;2023-09-19T03:48:30;1.53;;;1.53;;
5819;SDS011;2936;47.348;9.640;2023-09-19T03:50:58;1.53;;;1.53;;
5819;SDS011;2936;47.348;9.640;2023-09-19T03:53:26;6.97;;;2.10;;
5819;SDS011;2936;47.348;9.640;2023-09-19T03:55:54;24.17;;;2.17;;
5819;SDS011;2936;47.348;9.640;2023-09-19T03:58:25;1.30;;;1.20;;
5819;SDS011;2936;47.348;9.640;2023-09-19T04:00:56;2.10;;;2.00;;
5819;SDS011;2936;47.348;9.640;2023-09-19T04:03:24;1.80;;;1.70;;
5819;SDS011;2936;47.348;9.640;2023-09-19T04:06:00;4.03;;;1.43;;
5819;SDS011;2936;47.348;9.640;2023-09-19T04:08:28;1.50;;;1.50;;
5819;SDS011;2936;47.348;9.640;2023-09-19T04:10:55;1.20;;;1.20;;
5819;SDS011;2936;47.348;9.640;2023-09-19T04:13:24;1.20;;;1.20;;
5819;SDS011;2936;47.348;9.640;2023-09-19T04:15:51;1.50;;;1.40;;
5819;SDS011;2936;47.348;9.640;2023-09-19T04:18:21;1.80;;;1.70;;
5819;SDS011;2936;47.348;9.640;2023-09-19T04:20:49;1.53;;;1.43;;
5819;SDS011;2936;47.348;9.640;2023-09-19T04:23:16;1.40;;;1.40;;
5819;SDS011;2936;47.348;9.640;2023-09-19T04:25:45;2.10;;;1.33;;
5819;SDS011;2936;47.348;9.640;2023-09-19T04:28:13;1.97;;;1.87;;
5819;SDS011;2936;47.348;9.640;2023-09-19T04:30:41;2.00;;;1.90;;
5819;SDS011;2936;47.348;9.640;2023-09-19T04:33:09;1.17;;;1.17;;
5819;SDS011;2936;47.348;9.640;2023-09-19T04:35:38;1.47;;;1.47;;
5819;SDS011;2936;47.348;9.640;2023-09-19T04:38:07;1.50;;;1.50;;
5819;SDS011;2936;47.348;9.640;2023-09-19T04:40:35;1.60;;;1.57;;
5819;SDS011;2936;47.348;9.640;2023-09-19T04:43:05;1.63;;;1.53;;
5819;SDS011;2936;47.348;9.640;2023-09-19T04:45:33;1.83;;;1.73;;
5819;SDS011;2936;47.348;9.640;2023-09-19T04:48:00;1.40;;;1.40;;
5819;SDS011;2936;47.348;9.640;2023-09-19T04:50:29;1.60;;;1.50;;
5819;SDS011;2936;47.348;9.640;2023-09-19T04:52:58;1.20;;;1.20;;
5819;SDS011;2936;47.348;9.640;2023-09-19T04:55:26;1.20;;;1.20;;
5819;SDS011;2936;47.348;9.640;2023-09-19T04:57:55;1.70;;;1.60;;
5819;SDS011;2936;47.348;9.640;2023-09-19T05:00:23;1.70;;;1.60;;
5819;SDS011;2936;47.348;9.640;2023-09-19T05:02:54;1.40;;;1.40;;
5819;SDS011;2936;47.348;9.640;2023-09-19T05:05:22;2.07;;;1.97;;
5819;SDS011;2936;47.348;9.640;2023-09-19T05:07:51;2.00;;;1.90;;
5819;SDS011;2936;47.348;9.640;2023-09-19T05:10:23;2.20;;;2.10;;
5819;SDS011;2936;47.348;9.640;2023-09-19T05:12:52;1.70;;;1.60;;
5819;SDS011;2936;47.348;9.640;2023-09-19T05:15:21;1.90;;;1.80;;
5819;SDS011;2936;47.348;9.640;2023-09-19T05:17:48;1.80;;;1.70;;
5819;SDS011;2936;47.348;9.640;2023-09-19T05:20:18;1.53;;;1.47;;
5819;SDS011;2936;47.348;9.640;2023-09-19T05:22:57;1.90;;;1.80;;
5819;SDS011;2936;47.348;9.640;2023-09-19T05:25:30;1.80;;;1.70;;
5819;SDS011;2936;47.348;9.640;2023-09-19T05:27:58;1.33;;;1.33;;
5819;SDS011;2936;47.348;9.640;2023-09-19T05:30:29;8.20;;;2.53;;
5819;SDS011;2936;47.348;9.640;2023-09-19T05:32:56;1.77;;;1.67;;
5819;SDS011;2936;47.348;9.640;2023-09-19T05:35:24;1.90;;;1.83;;
5819;SDS011;2936;47.348;9.640;2023-09-19T05:37:52;2.20;;;1.60;;
5819;SDS011;2936;47.348;9.640;2023-09-19T05:40:21;1.97;;;1.87;;
5819;SDS011;2936;47.348;9.640;2023-09-19T05:42:51;2.97;;;2.80;;
5819;SDS011;2936;47.348;9.640;2023-09-19T05:45:19;2.60;;;2.40;;
5819;SDS011;2936;47.348;9.640;2023-09-19T05:47:48;3.37;;;2.10;;
5819;SDS011;2936;47.348;9.640;2023-09-19T05:50:16;1.60;;;1.60;;
5819;SDS011;2936;47.348;9.640;2023-09-19T05:52:51;5.73;;;1.80;;
5819;SDS011;2936;47.348;9.640;2023-09-19T05:55:19;2.40;;;2.03;;
5819;SDS011;2936;47.348;9.640;2023-09-19T05:57:51;2.40;;;1.63;;
5819;SDS011;2936;47.348;9.640;2023-09-19T06:00:19;1.93;;;1.83;;
5819;SDS011;2936;47.348;9.640;2023-09-19T06:02:52;1.90;;;1.80;;
5819;SDS011;2936;47.348;9.640;2023-09-19T06:05:20;8.00;;;2.03;;
5819;SDS011;2936;47.348;9.640;2023-09-19T06:07:48;2.90;;;2.80;;
5819;SDS011;2936;47.348;9.640;2023-09-19T06:10:15;2.47;;;2.37;;
5819;SDS011;2936;47.348;9.640;2023-09-19T06:12:46;2.47;;;2.37;;
5819;SDS011;2936;47.348;9.640;2023-09-19T06:15:15;2.33;;;2.23;;
5819;SDS011;2936;47.348;9.640;2023-09-19T06:17:46;2.17;;;1.73;;
5819;SDS011;2936;47.348;9.640;2023-09-19T06:20:14;2.67;;;2.57;;
5819;SDS011;2936;47.348;9.640;2023-09-19T06:22:42;6.00;;;2.60;;
5819;SDS011;2936;47.348;9.640;2023-09-19T06:25:11;2.17;;;2.07;;
5819;SDS011;2936;47.348;9.640;2023-09-19T06:27:44;1.83;;;1.73;;
5819;SDS011;2936;47.348;9.640;2023-09-19T06:30:12;4.23;;;2.17;;
5819;SDS011;2936;47.348;9.640;2023-09-19T06:32:42;2.23;;;2.03;;
5819;SDS011;2936;47.348;9.640;2023-09-19T06:35:10;2.17;;;2.07;;
5819;SDS011;2936;47.348;9.640;2023-09-19T06:37:38;11.93;;;1.87;;
5819;SDS011;2936;47.348;9.640;2023-09-19T06:40:07;1.93;;;1.80;;
5819;SDS011;2936;47.348;9.640;2023-09-19T06:42:38;2.30;;;2.20;;
5819;SDS011;2936;47.348;9.640;2023-09-19T06:45:07;2.17;;;2.07;;
5819;SDS011;2936;47.348;9.640;2023-09-19T06:47:36;2.90;;;2.60;;
5819;SDS011;2936;47.348;9.640;2023-09-19T06:50:09;2.40;;;2.00;;
5819;SDS011;2936;47.348;9.640;2023-09-19T06:52:39;2.20;;;2.10;;
5819;SDS011;2936;47.348;9.640;2023-09-19T06:55:07;2.53;;;2.43;;
5819;SDS011;2936;47.348;9.640;2023-09-19T06:57:38;2.20;;;2.10;;
5819;SDS011;2936;47.348;9.640;2023-09-19T07:00:08;2.87;;;2.53;;
5819;SDS011;2936;47.348;9.640;2023-09-19T07:02:42;2.93;;;2.73;;
5819;SDS011;2936;47.348;9.640;2023-09-19T07:05:11;2.80;;;2.70;;
5819;SDS011;2936;47.348;9.640;2023-09-19T07:07:38;1.87;;;1.77;;
5819;SDS011;2936;47.348;9.640;2023-09-19T07:10:06;1.93;;;1.83;;
5819;SDS011;2936;47.348;9.640;2023-09-19T07:12:36;2.17;;;2.07;;
5819;SDS011;2936;47.348;9.640;2023-09-19T07:15:04;2.23;;;2.07;;
5819;SDS011;2936;47.348;9.640;2023-09-19T07:17:32;2.13;;;2.00;;
5819;SDS011;2936;47.348;9.640;2023-09-19T07:20:00;3.53;;;1.90;;
5819;SDS011;2936;47.348;9.640;2023-09-19T07:22:34;2.67;;;2.47;;
5819;SDS011;2936;47.348;9.640;2023-09-19T07:25:05;2.50;;;2.40;;
5819;SDS011;2936;47.348;9.640;2023-09-19T07:27:33;2.47;;;2.37;;
5819;SDS011;2936;47.348;9.640;2023-09-19T07:30:02;2.53;;;2.33;;
5819;SDS011;2936;47.348;9.640;2023-09-19T07:32:30;1.60;;;1.50;;
5819;SDS011;2936;47.348;9.640;2023-09-19T07:34:58;2.00;;;1.90;;
5819;SDS011;2936;47.348;9.640;2023-09-19T07:37:25;1.60;;;1.50;;
5819;SDS011;2936;47.348;9.640;2023-09-19T07:39:54;1.60;;;1.50;;
5819;SDS011;2936;47.348;9.640;2023-09-19T07:42:22;6.80;;;1.53;;
5819;SDS011;2936;47.348;9.640;2023-09-19T07:44:51;1.70;;;1.60;;
5819;SDS011;2936;47.348;9.640;2023-09-19T07:47:19;1.40;;;1.40;;
5819;SDS011;2936;47.348;9.640;2023-09-19T07:49:47;1.83;;;1.43;;
5819;SDS011;2936;47.348;9.640;2023-09-19T07:52:14;2.33;;;1.80;;
5819;SDS011;2936;47.348;9.640;2023-09-19T07:54:42;1.93;;;1.83;;
5819;SDS011;2936;47.348;9.640;2023-09-19T07:57:14;2.17;;;1.80;;
5819;SDS011;2936;47.348;9.640;2023-09-19T07:59:42;1.67;;;1.60;;
5819;SDS011;2936;47.348;9.640;2023-09-19T08:02:13;1.70;;;1.30;;
5819;SDS011;2936;47.348;9.640;2023-09-19T08:04:43;3.20;;;1.83;;
5819;SDS011;2936;47.348;9.640;2023-09-19T08:07:12;2.20;;;1.77;;
5819;SDS011;2936;47.348;9.640;2023-09-19T08:09:40;2.07;;;1.87;;
5819;SDS011;2936;47.348;9.640;2023-09-19T08:12:11;1.47;;;1.37;;
5819;SDS011;2936;47.348;9.640;2023-09-19T08:14:43;5.00;;;1.87;;
5819;SDS011;2936;47.348;9.640;2023-09-19T08:17:12;1.87;;;1.77;;
5819;SDS011;2936;47.348;9.640;2023-09-19T08:19:40;1.50;;;1.40;;
5819;SDS011;2936;47.348;9.640;2023-09-19T08:22:10;1.73;;;1.63;;
5819;SDS011;2936;47.348;9.640;2023-09-19T08:24:37;2.17;;;1.97;;
5819;SDS011;2936;47.348;9.640;2023-09-19T08:27:08;1.53;;;1.43;;
5819;SDS011;2936;47.348;9.640;2023-09-19T08:29:37;1.60;;;1.50;;
5819;SDS011;2936;47.348;9.640;2023-09-19T08:32:07;1.73;;;1.63;;
5819;SDS011;2936;47.348;9.640;2023-09-19T08:34:34;1.40;;;1.30;;
5819;SDS011;2936;47.348;9.640;2023-09-19T08:37:03;1.43;;;1.43;;
5819;SDS011;2936;47.348;9.640;2023-09-19T08:39:30;1.40;;;1.40;;
5819;SDS011;2936;47.348;9.640;2023-09-19T08:42:00;1.83;;;1.73;;
5819;SDS011;2936;47.348;9.640;2023-09-19T08:44:29;6.37;;;1.60;;
5819;SDS011;2936;47.348;9.640;2023-09-19T08:47:01;3.20;;;1.97;;
5819;SDS011;2936;47.348;9.640;2023-09-19T08:49:36;1.67;;;1.53;;
5819;SDS011;2936;47.348;9.640;2023-09-19T08:52:10;12.63;;;1.63;;
5819;SDS011;2936;47.348;9.640;2023-09-19T08:54:41;1.87;;;1.77;;
5819;SDS011;2936;47.348;9.640;2023-09-19T08:57:09;1.30;;;1.30;;
5819;SDS011;2936;47.348;9.640;2023-09-19T08:59:46;2.13;;;1.70;;
5819;SDS011;2936;47.348;9.640;2023-09-19T09:02:15;2.60;;;2.40;;
5819;SDS011;2936;47.348;9.640;2023-09-19T09:04:45;2.60;;;1.70;;
5819;SDS011;2936;47.348;9.640;2023-09-19T09:07:13;1.87;;;1.77;;
5819;SDS011;2936;47.348;9.640;2023-09-19T09:09:41;1.97;;;1.87;;
5819;SDS011;2936;47.348;9.640;2023-09-19T09:12:10;1.73;;;1.63;;
5819;SDS011;2936;47.348;9.640;2023-09-19T09:14:39;1.80;;;1.70;;
5819;SDS011;2936;47.348;9.640;2023-09-19T09:17:07;2.30;;;2.20;;
5819;SDS011;2936;47.348;9.640;2023-09-19T09:19:35;10.93;;;1.80;;
5819;SDS011;2936;47.348;9.640;2023-09-19T09:22:08;1.40;;;1.40;;
5819;SDS011;2936;47.348;9.640;2023-09-19T09:24:36;1.97;;;1.63;;
5819;SDS011;2936;47.348;9.640;2023-09-19T09:27:05;9.10;;;1.77;;
5819;SDS011;2936;47.348;9.640;2023-09-19T09:29:42;1.50;;;1.50;;
5819;SDS011;2936;47.348;9.640;2023-09-19T09:32:22;1.40;;;1.30;;
5819;SDS011;2936;47.348;9.640;2023-09-19T09:34:50;1.50;;;1.50;;
5819;SDS011;2936;47.348;9.640;2023-09-19T09:37:20;1.20;;;1.20;;
5819;SDS011;2936;47.348;9.640;2023-09-19T09:39:51;3.00;;;1.30;;
5819;SDS011;2936;47.348;9.640;2023-09-19T09:45:16;5.03;;;2.03;;
5819;SDS011;2936;47.348;9.640;2023-09-19T09:47:45;1.13;;;1.13;;
5819;SDS011;2936;47.348;9.640;2023-09-19T09:50:29;1.47;;;1.37;;
5819;SDS011;2936;47.348;9.640;2023-09-19T09:53:23;1.63;;;1.27;;
5819;SDS011;2936;47.348;9.640;2023-09-19T09:55:56;1.60;;;1.60;;
5819;SDS011;2936;47.348;9.640;2023-09-19T09:58:25;1.07;;;1.07;;
5819;SDS011;2936;47.348;9.640;2023-09-19T10:00:54;1.50;;;1.40;;
5819;SDS011;2936;47.348;9.640;2023-09-19T10:03:31;0.97;;;0.97;;
5819;SDS011;2936;47.348;9.640;2023-09-19T10:06:05;4.30;;;1.23;;
5819;SDS011;2936;47.348;9.640;2023-09-19T10:09:01;1.03;;;1.03;;
5819;SDS011;2936;47.348;9.640;2023-09-19T10:11:38;2.70;;;1.37;;
5819;SDS011;2936;47.348;9.640;2023-09-19T10:14:06;1.27;;;1.27;;
5819;SDS011;2936;47.348;9.640;2023-09-19T10:16:35;1.33;;;1.23;;
5819;SDS011;2936;47.348;9.640;2023-09-19T10:19:07;1.40;;;1.30;;
5819;SDS011;2936;47.348;9.640;2023-09-19T10:21:36;1.23;;;1.23;;
5819;SDS011;2936;47.348;9.640;2023-09-19T10:24:06;0.83;;;0.83;;
5819;SDS011;2936;47.348;9.640;2023-09-19T10:26:35;1.17;;;1.10;;
5819;SDS011;2936;47.348;9.640;2023-09-19T10:29:05;1.60;;;1.60;;
5819;SDS011;2936;47.348;9.640;2023-09-19T10:31:35;1.13;;;1.03;;
5819;SDS011;2936;47.348;9.640;2023-09-19T10:34:06;2.50;;;1.50;;
5819;SDS011;2936;47.348;9.640;2023-09-19T10:36:35;0.90;;;0.90;;
5819;SDS011;2936;47.348;9.640;2023-09-19T10:39:04;1.37;;;1.27;;
5819;SDS011;2936;47.348;9.640;2023-09-19T10:41:36;0.80;;;0.80;;
5819;SDS011;2936;47.348;9.640;2023-09-19T10:44:04;1.37;;;1.20;;
5819;SDS011;2936;47.348;9.640;2023-09-19T10:46:31;0.90;;;0.90;;
5819;SDS011;2936;47.348;9.640;2023-09-19T10:48:59;1.10;;;1.10;;
5819;SDS011;2936;47.348;9.640;2023-09-19T10:51:28;1.00;;;1.00;;
5819;SDS011;2936;47.348;9.640;2023-09-19T10:53:58;0.93;;;0.93;;
5819;SDS011;2936;47.348;9.640;2023-09-19T10:56:27;1.00;;;1.00;;
5819;SDS011;2936;47.348;9.640;2023-09-19T10:59:06;4.73;;;1.10;;
5819;SDS011;2936;47.348;9.640;2023-09-19T11:01:44;1.40;;;1.40;;
5819;SDS011;2936;47.348;9.640;2023-09-19T11:04:23;0.90;;;0.90;;
5819;SDS011;2936;47.348;9.640;2023-09-19T11:07:03;1.20;;;1.20;;
5819;SDS011;2936;47.348;9.640;2023-09-19T11:09:43;0.83;;;0.83;;
5819;SDS011;2936;47.348;9.640;2023-09-19T11:12:12;1.10;;;1.10;;
5819;SDS011;2936;47.348;9.640;2023-09-19T11:14:42;1.10;;;1.00;;
5819;SDS011;2936;47.348;9.640;2023-09-19T11:25:41;0.83;;;0.83;;
5819;SDS011;2936;47.348;9.640;2023-09-19T11:28:31;1.03;;;1.03;;
5819;SDS011;2936;47.348;9.640;2023-09-19T11:31:40;0.90;;;0.90;;
5819;SDS011;2936;47.348;9.640;2023-09-19T11:33:48;1.13;;;1.13;;
5819;SDS011;2936;47.348;9.640;2023-09-19T11:36:38;1.43;;;0.90;;
5819;SDS011;2936;47.348;9.640;2023-09-19T11:39:06;2.60;;;1.23;;
5819;SDS011;2936;47.348;9.640;2023-09-19T11:41:52;0.80;;;0.80;;
5819;SDS011;2936;47.348;9.640;2023-09-19T11:44:31;1.00;;;1.00;;
5819;SDS011;2936;47.348;9.640;2023-09-19T11:47:02;1.07;;;0.97;;
5819;SDS011;2936;47.348;9.640;2023-09-19T11:49:30;1.00;;;1.00;;
5819;SDS011;2936;47.348;9.640;2023-09-19T11:51:59;3.63;;;1.50;;
5819;SDS011;2936;47.348;9.640;2023-09-19T11:54:30;1.27;;;1.17;;
5819;SDS011;2936;47.348;9.640;2023-09-19T11:56:58;3.13;;;1.50;;
5819;SDS011;2936;47.348;9.640;2023-09-19T11:59:26;0.80;;;0.80;;
5819;SDS011;2936;47.348;9.640;2023-09-19T12:01:55;1.00;;;1.00;;
5819;SDS011;2936;47.348;9.640;2023-09-19T12:04:35;8.50;;;1.23;;
5819;SDS011;2936;47.348;9.640;2023-09-19T12:07:04;1.13;;;1.00;;
5819;SDS011;2936;47.348;9.640;2023-09-19T12:09:36;1.17;;;1.07;;
5819;SDS011;2936;47.348;9.640;2023-09-19T12:12:04;0.93;;;0.93;;
5819;SDS011;2936;47.348;9.640;2023-09-19T12:14:31;6.17;;;1.00;;
5819;SDS011;2936;47.348;9.640;2023-09-19T12:17:00;0.70;;;0.70;;
5819;SDS011;2936;47.348;9.640;2023-09-19T12:19:29;1.20;;;1.20;;
5819;SDS011;2936;47.348;9.640;2023-09-19T12:21:58;1.00;;;1.00;;
5819;SDS011;2936;47.348;9.640;2023-09-19T12:24:30;1.47;;;1.37;;
5819;SDS011;2936;47.348;9.640;2023-09-19T12:27:02;1.67;;;1.30;;
5819;SDS011;2936;47.348;9.640;2023-09-19T12:29:31;0.80;;;0.80;;
5819;SDS011;2936;47.348;9.640;2023-09-19T12:31:59;0.70;;;0.70;;
5819;SDS011;2936;47.348;9.640;2023-09-19T12:34:31;1.50;;;1.40;;
5819;SDS011;2936;47.348;9.640;2023-09-19T12:37:06;1.37;;;1.37;;
5819;SDS011;2936;47.348;9.640;2023-09-19T12:39:40;0.70;;;0.70;;
5819;SDS011;2936;47.348;9.640;2023-09-19T12:42:08;0.90;;;0.90;;
5819;SDS011;2936;47.348;9.640;2023-09-19T12:44:40;0.60;;;0.60;;
5819;SDS011;2936;47.348;9.640;2023-09-19T12:47:08;0.70;;;0.70;;
5819;SDS011;2936;47.348;9.640;2023-09-19T12:49:36;0.90;;;0.90;;
5819;SDS011;2936;47.348;9.640;2023-09-19T12:52:03;0.90;;;0.90;;
5819;SDS011;2936;47.348;9.640;2023-09-19T12:54:40;0.80;;;0.80;;
5819;SDS011;2936;47.348;9.640;2023-09-19T12:57:09;0.70;;;0.60;;
5819;SDS011;2936;47.348;9.640;2023-09-19T12:59:51;0.70;;;0.70;;
5819;SDS011;2936;47.348;9.640;2023-09-19T13:02:19;0.67;;;0.67;;
5819;SDS011;2936;47.348;9.640;2023-09-19T13:04:52;4.00;;;0.80;;
5819;SDS011;2936;47.348;9.640;2023-09-19T13:07:40;1.00;;;1.00;;
5819;SDS011;2936;47.348;9.640;2023-09-19T13:10:14;1.77;;;1.00;;
5819;SDS011;2936;47.348;9.640;2023-09-19T13:12:45;0.80;;;0.70;;
5819;SDS011;2936;47.348;9.640;2023-09-19T13:15:14;1.10;;;1.10;;
5819;SDS011;2936;47.348;9.640;2023-09-19T13:17:45;0.70;;;0.70;;
5819;SDS011;2936;47.348;9.640;2023-09-19T13:20:21;0.80;;;0.80;;
5819;SDS011;2936;47.348;9.640;2023-09-19T13:22:53;0.70;;;0.70;;
5819;SDS011;2936;47.348;9.640;2023-09-19T13:25:26;1.27;;;0.80;;
5819;SDS011;2936;47.348;9.640;2023-09-19T13:27:57;0.80;;;0.80;;
5819;SDS011;2936;47.348;9.640;2023-09-19T13:30:26;0.90;;;0.90;;
5819;SDS011;2936;47.348;9.640;2023-09-19T13:33:04;1.73;;;0.80;;
5819;SDS011;2936;47.348;9.640;2023-09-19T13:35:32;1.40;;;0.73;;
5819;SDS011;2936;47.348;9.640;2023-09-19T13:38:02;0.70;;;0.70;;
5819;SDS011;2936;47.348;9.640;2023-09-19T13:40:31;0.63;;;0.63;;
5819;SDS011;2936;47.348;9.640;2023-09-19T13:43:00;1.93;;;0.90;;
5819;SDS011;2936;47.348;9.640;2023-09-19T13:45:27;0.70;;;0.70;;
5819;SDS011;2936;47.348;9.640;2023-09-19T13:47:55;0.83;;;0.80;;
5819;SDS011;2936;47.348;9.640;2023-09-19T13:50:24;0.70;;;0.70;;
5819;SDS011;2936;47.348;9.640;2023-09-19T13:52:54;0.60;;;0.60;;
5819;SDS011;2936;47.348;9.640;2023-09-19T13:55:22;0.70;;;0.70;;
5819;SDS011;2936;47.348;9.640;2023-09-19T13:57:51;0.60;;;0.60;;
5819;SDS011;2936;47.348;9.640;2023-09-19T14:00:21;0.70;;;0.70;;
5819;SDS011;2936;47.348;9.640;2023-09-19T14:02:48;0.87;;;0.87;;
5819;SDS011;2936;47.348;9.640;2023-09-19T14:05:16;1.33;;;0.80;;
5819;SDS011;2936;47.348;9.640;2023-09-19T14:07:45;0.87;;;0.87;;
5819;SDS011;2936;47.348;9.640;2023-09-19T14:10:13;1.10;;;1.10;;
5819;SDS011;2936;47.348;9.640;2023-09-19T14:12:42;0.80;;;0.80;;
5819;SDS011;2936;47.348;9.640;2023-09-19T14:15:13;1.00;;;1.00;;
5819;SDS011;2936;47.348;9.640;2023-09-19T14:17:43;0.83;;;0.83;;
5819;SDS011;2936;47.348;9.640;2023-09-19T14:20:11;0.73;;;0.73;;
5819;SDS011;2936;47.348;9.640;2023-09-19T14:22:40;1.00;;;0.93;;
5819;SDS011;2936;47.348;9.640;2023-09-19T14:25:08;0.90;;;0.90;;
5819;SDS011;2936;47.348;9.640;2023-09-19T14:27:36;0.90;;;0.90;;
5819;SDS011;2936;47.348;9.640;2023-09-19T14:30:04;0.70;;;0.70;;
5819;SDS011;2936;47.348;9.640;2023-09-19T14:32:34;1.03;;;1.03;;
5819;SDS011;2936;47.348;9.640;2023-09-19T14:35:01;1.47;;;1.37;;
5819;SDS011;2936;47.348;9.640;2023-09-19T14:37:29;1.00;;;0.90;;
5819;SDS011;2936;47.348;9.640;2023-09-19T14:39:57;0.70;;;0.60;;
5819;SDS011;2936;47.348;9.640;2023-09-19T14:42:24;2.17;;;0.73;;
5819;SDS011;2936;47.348;9.640;2023-09-19T14:44:52;0.70;;;0.70;;
5819;SDS011;2936;47.348;9.640;2023-09-19T14:47:20;5.23;;;1.27;;
5819;SDS011;2936;47.348;9.640;2023-09-19T14:49:50;0.70;;;0.70;;
5819;SDS011;2936;47.348;9.640;2023-09-19T14:52:18;1.73;;;1.10;;
5819;SDS011;2936;47.348;9.640;2023-09-19T14:54:45;1.23;;;1.13;;
5819;SDS011;2936;47.348;9.640;2023-09-19T14:57:13;0.80;;;0.80;;
5819;SDS011;2936;47.348;9.640;2023-09-19T14:59:41;0.93;;;0.83;;
5819;SDS011;2936;47.348;9.640;2023-09-19T15:02:08;0.93;;;0.93;;
5819;SDS011;2936;47.348;9.640;2023-09-19T15:04:36;0.77;;;0.77;;
5819;SDS011;2936;47.348;9.640;2023-09-19T15:07:07;0.70;;;0.70;;
5819;SDS011;2936;47.348;9.640;2023-09-19T15:09:35;1.83;;;0.90;;
5819;SDS011;2936;47.348;9.640;2023-09-19T15:12:03;0.70;;;0.70;;
5819;SDS011;2936;47.348;9.640;2023-09-19T15:14:31;1.00;;;0.90;;
5819;SDS011;2936;47.348;9.640;2023-09-19T15:16:58;0.93;;;0.90;;
5819;SDS011;2936;47.348;9.640;2023-09-19T15:19:29;0.90;;;0.90;;
5819;SDS011;2936;47.348;9.640;2023-09-19T15:21:57;0.70;;;0.70;;
5819;SDS011;2936;47.348;9.640;2023-09-19T15:24:28;0.80;;;0.80;;
5819;SDS011;2936;47.348;9.640;2023-09-19T15:26:56;0.87;;;0.87;;
5819;SDS011;2936;47.348;9.640;2023-09-19T15:29:23;0.93;;;0.93;;
5819;SDS011;2936;47.348;9.640;2023-09-19T15:31:51;1.20;;;1.20;;
5819;SDS011;2936;47.348;9.640;2023-09-19T15:34:19;0.77;;;0.77;;
5819;SDS011;2936;47.348;9.640;2023-09-19T15:36:46;0.90;;;0.90;;
5819;SDS011;2936;47.348;9.640;2023-09-19T15:39:14;1.20;;;1.20;;
5819;SDS011;2936;47.348;9.640;2023-09-19T15:41:44;1.30;;;1.30;;
5819;SDS011;2936;47.348;9.640;2023-09-19T15:44:15;1.03;;;0.93;;
5819;SDS011;2936;47.348;9.640;2023-09-19T15:46:44;0.70;;;0.70;;